Main page
METAR-TAF:

METAR-TAF

Airports :

Palma de Mallorca Airport

Palma de Mallorca, Spain

latitude: 39-33N, longitude: 002-44E, elevation: 4 m

Current weather observation

The report was made 26 minutes ago, at 22:00 UTC
Wind 3 kt from the East/Northeast
Temperature 27°C
Humidity 70%
Pressure 1017 hPa
Visibility 10 km or more
no clouds below 1500 m and no cumulonimbus

METAR: LEPA 092200Z 06003KT CAVOK 27/21 Q1017 NOSIG

Time: 00:26 (22:26 UTC)

Forecast

The report was made 5 hours and 26 minutes ago, at 17:00 UTC
Forecast valid from 09 at 18 UTC to 10 at 18 UTC
Wind 3 kt from variable directions
Visibility 10 km or more
no clouds below 1500 m and no cumulonimbus
Becoming
from 10 at 10 UTC to 10 at 12 UTC
Wind 12 kt from the Southwest
Probability 30% :
Temporary
from 10 at 12 UTC to 10 at 16 UTC
Few clouds at a height of 6000 ft, Cumulonimbus.

TAF: LEPA 091700Z 0918/1018 VRB03KT CAVOK TX35/1012Z TN21/1005Z BECMG 1010/1012 22012KT PROB30 TEMPO 1012/1016 FEW060CB

Weather observations and forecasts of more than 4000 airports (METAR and TAF reports).

The available stations are represented by yellow and red dots on the map.

Hover mouse over dot to see the name of the station.

Then click to see weather observations and forecasts.

To change the map : click on the green buttons with a black cross to zoom in, on the green button with a dash to zoom out, or on the green arrows for adjacent maps.


METAR-TAF: